aviador You're here:

KVTP Decoded Metar

LA VETA PASS in CO, USA
Report Time2018-05-20 19:12:00
UTC Time2018-05-20 19:36:17
Flight Rules vfr VFR
Wind030° at 05 kt
W.Rank030° ranks 7
Current wind is below 030° avg. (8.2)
Visibility9999 m
Phenomena:N/A
Clouds:Scattered 001 Hf
Scattered 050 Hf
Broken 060 Hf
Expected CloudBase > 2,400 ft AGL from Temp-Dew spread
Ceiling6,000 ft
Temp12°C (ISA +17)
Dew Point06°C (67% RH)
AAT9.3°C
QNH1030 hPa
Density Alt11,791 ft
Elevation10,217 ft
Report Wrong Elevation
Raw Report
KVTP 201912Z AUTO 03005KT 10SM SCT001 SCT050 BKN060 12/06 A3043
RMK AO2 LTG DSNT N=

Extra information for KVTP:More info

Metar Taf Metar & Taf Last 4 Metars F.Rules Stats Wind Profile Meteogram Temp Stats Airport Information Weather charts Add Link Nearby VenuesMetar ALERT Operation Metar Decoded Social comments

AIRNAV info for KVTP